sensor_id;sensor_type;location;lat;lon;timestamp;pressure;altitude;pressure_sealevel;temperature;humidity
61026;BME280;46911;32.650;-16.902;2023-04-24T00:01:13;101699.38;;;16.58;66.20
61026;BME280;46911;32.650;-16.902;2023-04-24T00:03:14;101696.94;;;16.55;66.45
61026;BME280;46911;32.650;-16.902;2023-04-24T00:05:15;101699.50;;;16.56;66.65
61026;BME280;46911;32.650;-16.902;2023-04-24T00:07:16;101686.53;;;16.50;66.71
61026;BME280;46911;32.650;-16.902;2023-04-24T00:09:17;101698.16;;;16.51;66.86
61026;BME280;46911;32.650;-16.902;2023-04-24T00:11:18;101676.59;;;16.39;66.93
61026;BME280;46911;32.650;-16.902;2023-04-24T00:13:24;101699.13;;;16.50;67.09
61026;BME280;46911;32.650;-16.902;2023-04-24T00:15:27;101676.22;;;16.33;66.97
61026;BME280;46911;32.650;-16.902;2023-04-24T00:17:30;101694.25;;;16.44;66.94
61026;BME280;46911;32.650;-16.902;2023-04-24T00:19:33;101689.19;;;16.39;66.94
61026;BME280;46911;32.650;-16.902;2023-04-24T00:21:34;101684.69;;;16.39;67.09
61026;BME280;46911;32.650;-16.902;2023-04-24T00:23:38;101668.50;;;16.28;66.80
61026;BME280;46911;32.650;-16.902;2023-04-24T00:25:39;101669.69;;;16.24;67.02
61026;BME280;46911;32.650;-16.902;2023-04-24T00:27:40;101689.31;;;16.37;67.02
61026;BME280;46911;32.650;-16.902;2023-04-24T00:29:41;101686.50;;;16.39;67.25
61026;BME280;46911;32.650;-16.902;2023-04-24T00:31:42;101691.63;;;16.42;66.66
61026;BME280;46911;32.650;-16.902;2023-04-24T00:33:45;101687.38;;;16.39;66.97
61026;BME280;46911;32.650;-16.902;2023-04-24T00:35:48;101690.06;;;16.39;66.89
61026;BME280;46911;32.650;-16.902;2023-04-24T00:37:54;101704.00;;;16.45;66.86
61026;BME280;46911;32.650;-16.902;2023-04-24T00:40:03;101689.44;;;16.36;66.75
61026;BME280;46911;32.650;-16.902;2023-04-24T00:42:04;101689.94;;;16.41;66.85
61026;BME280;46911;32.650;-16.902;2023-04-24T00:44:06;101680.34;;;16.26;66.80
61026;BME280;46911;32.650;-16.902;2023-04-24T00:46:10;101676.81;;;16.25;66.76
61026;BME280;46911;32.650;-16.902;2023-04-24T00:48:12;101669.19;;;16.19;66.90
61026;BME280;46911;32.650;-16.902;2023-04-24T00:50:15;101662.56;;;16.12;66.98
61026;BME280;46911;32.650;-16.902;2023-04-24T00:52:18;101666.00;;;16.14;66.97
61026;BME280;46911;32.650;-16.902;2023-04-24T00:54:21;101672.47;;;16.11;67.12
61026;BME280;46911;32.650;-16.902;2023-04-24T00:56:30;101674.69;;;16.17;67.28
61026;BME280;46911;32.650;-16.902;2023-04-24T00:58:33;101689.75;;;16.20;67.21
61026;BME280;46911;32.650;-16.902;2023-04-24T01:00:36;101684.84;;;16.14;67.46
61026;BME280;46911;32.650;-16.902;2023-04-24T01:02:41;101680.41;;;16.13;67.35
61026;BME280;46911;32.650;-16.902;2023-04-24T01:04:45;101676.16;;;16.10;67.35
61026;BME280;46911;32.650;-16.902;2023-04-24T01:06:48;101676.50;;;16.05;67.42
61026;BME280;46911;32.650;-16.902;2023-04-24T01:08:49;101661.03;;;15.96;67.68
61026;BME280;46911;32.650;-16.902;2023-04-24T01:10:55;101649.75;;;15.91;67.88
61026;BME280;46911;32.650;-16.902;2023-04-24T01:12:58;101660.59;;;16.02;67.92
61026;BME280;46911;32.650;-16.902;2023-04-24T01:15:00;101658.47;;;15.95;68.10
61026;BME280;46911;32.650;-16.902;2023-04-24T01:17:03;101664.25;;;16.01;68.04
61026;BME280;46911;32.650;-16.902;2023-04-24T01:19:06;101661.78;;;15.98;68.31
61026;BME280;46911;32.650;-16.902;2023-04-24T01:21:11;101665.97;;;16.02;68.25
61026;BME280;46911;32.650;-16.902;2023-04-24T01:23:16;101654.13;;;16.05;68.53
61026;BME280;46911;32.650;-16.902;2023-04-24T01:25:21;101652.25;;;15.94;68.61
61026;BME280;46911;32.650;-16.902;2023-04-24T01:27:23;101652.72;;;15.99;68.35
61026;BME280;46911;32.650;-16.902;2023-04-24T01:29:31;101639.75;;;15.93;68.24
61026;BME280;46911;32.650;-16.902;2023-04-24T01:31:32;101628.47;;;15.88;67.99
61026;BME280;46911;32.650;-16.902;2023-04-24T01:33:34;101652.13;;;15.96;68.13
61026;BME280;46911;32.650;-16.902;2023-04-24T01:35:37;101640.34;;;15.85;68.15
61026;BME280;46911;32.650;-16.902;2023-04-24T01:37:38;101645.13;;;15.93;68.10
61026;BME280;46911;32.650;-16.902;2023-04-24T01:39:43;101650.75;;;15.90;67.97
61026;BME280;46911;32.650;-16.902;2023-04-24T01:41:47;101663.09;;;15.93;68.02
61026;BME280;46911;32.650;-16.902;2023-04-24T01:43:53;101648.66;;;15.82;67.90
61026;BME280;46911;32.650;-16.902;2023-04-24T01:46:07;101657.00;;;15.90;67.81
61026;BME280;46911;32.650;-16.902;2023-04-24T01:48:12;101655.78;;;15.95;67.98
61026;BME280;46911;32.650;-16.902;2023-04-24T01:50:13;101654.41;;;15.89;67.93
61026;BME280;46911;32.650;-16.902;2023-04-24T01:52:14;101630.47;;;15.73;67.97
61026;BME280;46911;32.650;-16.902;2023-04-24T01:54:15;101643.16;;;15.84;67.96
61026;BME280;46911;32.650;-16.902;2023-04-24T01:56:19;101645.06;;;15.82;67.85
61026;BME280;46911;32.650;-16.902;2023-04-24T01:58:24;101649.50;;;15.83;67.85
61026;BME280;46911;32.650;-16.902;2023-04-24T02:00:25;101627.91;;;15.71;67.74
61026;BME280;46911;32.650;-16.902;2023-04-24T02:02:27;101625.94;;;15.73;67.65
61026;BME280;46911;32.650;-16.902;2023-04-24T02:04:32;101626.31;;;15.69;67.64
61026;BME280;46911;32.650;-16.902;2023-04-24T02:06:36;101635.38;;;15.79;67.53
61026;BME280;46911;32.650;-16.902;2023-04-24T02:08:37;101634.97;;;15.72;67.93
61026;BME280;46911;32.650;-16.902;2023-04-24T02:10:37;101620.72;;;15.59;67.98
61026;BME280;46911;32.650;-16.902;2023-04-24T02:12:39;101617.84;;;15.62;67.87
61026;BME280;46911;32.650;-16.902;2023-04-24T02:14:44;101627.66;;;15.74;67.80
61026;BME280;46911;32.650;-16.902;2023-04-24T02:16:48;101631.75;;;15.80;67.75
61026;BME280;46911;32.650;-16.902;2023-04-24T02:18:51;101611.25;;;15.66;67.80
61026;BME280;46911;32.650;-16.902;2023-04-24T02:20:52;101613.38;;;15.74;67.89
61026;BME280;46911;32.650;-16.902;2023-04-24T02:22:57;101618.22;;;15.69;67.92
61026;BME280;46911;32.650;-16.902;2023-04-24T02:25:00;101604.59;;;15.59;67.87
61026;BME280;46911;32.650;-16.902;2023-04-24T02:27:01;101600.44;;;15.55;68.17
61026;BME280;46911;32.650;-16.902;2023-04-24T02:29:06;101606.09;;;15.63;68.09
61026;BME280;46911;32.650;-16.902;2023-04-24T02:31:07;101586.25;;;15.53;68.11
61026;BME280;46911;32.650;-16.902;2023-04-24T02:33:13;101581.22;;;15.48;68.07
61026;BME280;46911;32.650;-16.902;2023-04-24T02:35:14;101579.41;;;15.49;67.74
61026;BME280;46911;32.650;-16.902;2023-04-24T02:37:15;101579.28;;;15.50;67.86
61026;BME280;46911;32.650;-16.902;2023-04-24T02:39:17;101584.88;;;15.47;67.87
61026;BME280;46911;32.650;-16.902;2023-04-24T02:41:24;101585.50;;;15.51;67.68
61026;BME280;46911;32.650;-16.902;2023-04-24T02:43:25;101591.63;;;15.53;67.57
61026;BME280;46911;32.650;-16.902;2023-04-24T02:45:28;101588.06;;;15.52;67.64
61026;BME280;46911;32.650;-16.902;2023-04-24T02:47:29;101575.44;;;15.42;67.69
61026;BME280;46911;32.650;-16.902;2023-04-24T02:49:30;101568.34;;;15.40;67.79
61026;BME280;46911;32.650;-16.902;2023-04-24T02:51:34;101582.81;;;15.51;67.83
61026;BME280;46911;32.650;-16.902;2023-04-24T02:53:41;101559.41;;;15.40;67.82
61026;BME280;46911;32.650;-16.902;2023-04-24T02:55:44;101562.97;;;15.40;67.79
61026;BME280;46911;32.650;-16.902;2023-04-24T02:57:51;101561.78;;;15.45;67.79
61026;BME280;46911;32.650;-16.902;2023-04-24T02:59:52;101575.50;;;15.53;67.82
61026;BME280;46911;32.650;-16.902;2023-04-24T03:01:53;101562.00;;;15.42;67.84
61026;BME280;46911;32.650;-16.902;2023-04-24T03:03:57;101572.53;;;15.45;67.36
61026;BME280;46911;32.650;-16.902;2023-04-24T03:05:58;101561.47;;;15.36;67.14
61026;BME280;46911;32.650;-16.902;2023-04-24T03:08:02;101561.16;;;15.41;67.04
61026;BME280;46911;32.650;-16.902;2023-04-24T03:10:08;101549.59;;;15.28;66.74
61026;BME280;46911;32.650;-16.902;2023-04-24T03:12:09;101564.56;;;15.43;66.66
61026;BME280;46911;32.650;-16.902;2023-04-24T03:14:12;101572.63;;;15.43;67.25
61026;BME280;46911;32.650;-16.902;2023-04-24T03:16:16;101572.22;;;15.36;67.51
61026;BME280;46911;32.650;-16.902;2023-04-24T03:18:17;101553.69;;;15.20;68.23
61026;BME280;46911;32.650;-16.902;2023-04-24T03:20:17;101515.63;;;15.02;68.45
61026;BME280;46911;32.650;-16.902;2023-04-24T03:22:19;101567.53;;;15.27;68.53
61026;BME280;46911;32.650;-16.902;2023-04-24T03:24:22;101555.94;;;15.27;67.82
61026;BME280;46911;32.650;-16.902;2023-04-24T03:26:23;101565.22;;;15.22;67.40
61026;BME280;46911;32.650;-16.902;2023-04-24T03:28:39;101561.44;;;15.25;67.34
61026;BME280;46911;32.650;-16.902;2023-04-24T03:30:41;101543.19;;;15.17;67.23
61026;BME280;46911;32.650;-16.902;2023-04-24T03:32:43;101560.47;;;15.26;67.08
61026;BME280;46911;32.650;-16.902;2023-04-24T03:34:50;101565.09;;;15.24;67.17
61026;BME280;46911;32.650;-16.902;2023-04-24T03:36:54;101567.78;;;15.24;67.04
61026;BME280;46911;32.650;-16.902;2023-04-24T03:38:56;101520.72;;;14.94;66.91
61026;BME280;46911;32.650;-16.902;2023-04-24T03:41:09;101575.00;;;15.23;66.97
61026;BME280;46911;32.650;-16.902;2023-04-24T03:43:14;101553.53;;;15.11;66.88
61026;BME280;46911;32.650;-16.902;2023-04-24T03:45:20;101587.06;;;15.18;67.02
61026;BME280;46911;32.650;-16.902;2023-04-24T03:47:27;101567.53;;;15.03;67.14
61026;BME280;46911;32.650;-16.902;2023-04-24T03:49:33;101585.13;;;15.07;67.25
61026;BME280;46911;32.650;-16.902;2023-04-24T03:51:37;101565.44;;;14.95;67.32
61026;BME280;46911;32.650;-16.902;2023-04-24T03:53:51;101595.44;;;15.13;67.05
61026;BME280;46911;32.650;-16.902;2023-04-24T03:55:56;101585.78;;;15.11;67.22
61026;BME280;46911;32.650;-16.902;2023-04-24T03:57:58;101588.22;;;15.14;67.20
61026;BME280;46911;32.650;-16.902;2023-04-24T04:00:01;101535.66;;;14.85;67.00
61026;BME280;46911;32.650;-16.902;2023-04-24T04:02:15;101584.94;;;15.10;67.49
61026;BME280;46911;32.650;-16.902;2023-04-24T04:04:18;101583.84;;;15.13;67.74
61026;BME280;46911;32.650;-16.902;2023-04-24T04:06:19;101571.63;;;15.09;67.42
61026;BME280;46911;32.650;-16.902;2023-04-24T04:08:28;101575.47;;;15.04;67.60
61026;BME280;46911;32.650;-16.902;2023-04-24T04:10:28;101589.44;;;15.10;67.43
61026;BME280;46911;32.650;-16.902;2023-04-24T04:12:30;101596.28;;;15.14;67.52
61026;BME280;46911;32.650;-16.902;2023-04-24T04:14:31;101603.84;;;15.09;67.67
61026;BME280;46911;32.650;-16.902;2023-04-24T04:16:32;101594.19;;;15.06;67.55
61026;BME280;46911;32.650;-16.902;2023-04-24T04:18:36;101575.94;;;14.98;67.82
61026;BME280;46911;32.650;-16.902;2023-04-24T04:20:40;101585.25;;;15.05;67.71
61026;BME280;46911;32.650;-16.902;2023-04-24T04:22:42;101584.28;;;15.06;67.68
61026;BME280;46911;32.650;-16.902;2023-04-24T04:24:45;101569.19;;;14.93;67.86
61026;BME280;46911;32.650;-16.902;2023-04-24T04:26:47;101582.69;;;15.04;67.71
61026;BME280;46911;32.650;-16.902;2023-04-24T04:29:02;101569.06;;;14.94;67.72
61026;BME280;46911;32.650;-16.902;2023-04-24T04:31:09;101566.28;;;14.96;67.86
61026;BME280;46911;32.650;-16.902;2023-04-24T04:33:10;101572.38;;;14.98;68.06
61026;BME280;46911;32.650;-16.902;2023-04-24T04:35:11;101579.03;;;15.05;67.99
61026;BME280;46911;32.650;-16.902;2023-04-24T04:37:15;101563.59;;;14.96;67.89
61026;BME280;46911;32.650;-16.902;2023-04-24T04:39:35;101571.28;;;15.00;67.62
61026;BME280;46911;32.650;-16.902;2023-04-24T04:41:41;101565.50;;;14.94;67.59
61026;BME280;46911;32.650;-16.902;2023-04-24T04:43:44;101558.66;;;14.89;67.86
61026;BME280;46911;32.650;-16.902;2023-04-24T04:45:45;101563.59;;;14.96;68.07
61026;BME280;46911;32.650;-16.902;2023-04-24T04:48:09;101560.78;;;14.97;68.17
61026;BME280;46911;32.650;-16.902;2023-04-24T04:50:18;101568.84;;;14.97;68.13
61026;BME280;46911;32.650;-16.902;2023-04-24T04:52:24;101557.91;;;14.87;68.24
61026;BME280;46911;32.650;-16.902;2023-04-24T04:54:31;101543.53;;;14.88;67.88
61026;BME280;46911;32.650;-16.902;2023-04-24T04:56:35;101570.31;;;15.01;67.64
61026;BME280;46911;32.650;-16.902;2023-04-24T04:58:37;101575.06;;;14.98;67.58
61026;BME280;46911;32.650;-16.902;2023-04-24T05:00:42;101549.75;;;14.89;67.63
61026;BME280;46911;32.650;-16.902;2023-04-24T05:02:53;101555.97;;;14.89;67.29
61026;BME280;46911;32.650;-16.902;2023-04-24T05:04:57;101554.34;;;14.87;67.04
61026;BME280;46911;32.650;-16.902;2023-04-24T05:07:01;101566.03;;;14.99;67.10
61026;BME280;46911;32.650;-16.902;2023-04-24T05:09:05;101544.38;;;14.89;66.81
61026;BME280;46911;32.650;-16.902;2023-04-24T05:11:36;101560.06;;;14.95;66.47
61026;BME280;46911;32.650;-16.902;2023-04-24T05:13:37;101546.97;;;14.78;66.53
61026;BME280;46911;32.650;-16.902;2023-04-24T05:15:46;101540.75;;;14.77;66.94
61026;BME280;46911;32.650;-16.902;2023-04-24T05:17:52;101557.16;;;14.85;66.95
61026;BME280;46911;32.650;-16.902;2023-04-24T05:19:56;101551.25;;;14.80;67.50
61026;BME280;46911;32.650;-16.902;2023-04-24T05:22:00;101532.13;;;14.85;66.68
61026;BME280;46911;32.650;-16.902;2023-04-24T05:24:04;101542.81;;;14.98;66.67
61026;BME280;46911;32.650;-16.902;2023-04-24T05:26:25;101532.38;;;14.82;66.58
61026;BME280;46911;32.650;-16.902;2023-04-24T05:28:26;101533.78;;;14.75;67.06
61026;BME280;46911;32.650;-16.902;2023-04-24T05:30:45;101553.22;;;14.78;67.19
61026;BME280;46911;32.650;-16.902;2023-04-24T05:32:47;101552.81;;;14.71;67.72
61026;BME280;46911;32.650;-16.902;2023-04-24T05:34:48;101546.91;;;14.66;68.06
61026;BME280;46911;32.650;-16.902;2023-04-24T05:36:49;101540.31;;;14.57;68.39
61026;BME280;46911;32.650;-16.902;2023-04-24T05:38:53;101533.72;;;14.63;68.69
61026;BME280;46911;32.650;-16.902;2023-04-24T05:40:57;101538.06;;;14.64;68.90
61026;BME280;46911;32.650;-16.902;2023-04-24T05:42:57;101550.41;;;14.80;68.97
61026;BME280;46911;32.650;-16.902;2023-04-24T05:45:01;101529.81;;;14.67;68.65
61026;BME280;46911;32.650;-16.902;2023-04-24T05:47:04;101551.25;;;14.80;68.20
61026;BME280;46911;32.650;-16.902;2023-04-24T05:49:08;101526.78;;;14.72;67.59
61026;BME280;46911;32.650;-16.902;2023-04-24T05:51:10;101546.75;;;14.81;67.44
61026;BME280;46911;32.650;-16.902;2023-04-24T05:53:13;101535.50;;;14.76;67.41
61026;BME280;46911;32.650;-16.902;2023-04-24T05:55:17;101542.38;;;14.67;67.42
61026;BME280;46911;32.650;-16.902;2023-04-24T05:57:23;101547.06;;;14.76;67.50
61026;BME280;46911;32.650;-16.902;2023-04-24T05:59:31;101558.47;;;14.80;67.51
61026;BME280;46911;32.650;-16.902;2023-04-24T06:01:34;101560.91;;;14.83;67.31
61026;BME280;46911;32.650;-16.902;2023-04-24T06:03:50;101550.19;;;14.83;68.06
61026;BME280;46911;32.650;-16.902;2023-04-24T06:05:57;101543.03;;;14.70;68.37
61026;BME280;46911;32.650;-16.902;2023-04-24T06:08:00;101560.81;;;14.84;68.40
61026;BME280;46911;32.650;-16.902;2023-04-24T06:10:09;101572.19;;;14.88;68.27
61026;BME280;46911;32.650;-16.902;2023-04-24T06:12:16;101565.00;;;14.88;68.08
61026;BME280;46911;32.650;-16.902;2023-04-24T06:14:36;101544.50;;;14.75;67.58
61026;BME280;46911;32.650;-16.902;2023-04-24T06:16:57;101552.34;;;14.78;67.46
61026;BME280;46911;32.650;-16.902;2023-04-24T06:19:11;101548.69;;;14.79;67.00
61026;BME280;46911;32.650;-16.902;2023-04-24T06:21:12;101555.13;;;14.89;67.04
61026;BME280;46911;32.650;-16.902;2023-04-24T06:23:15;101569.69;;;14.98;67.20
61026;BME280;46911;32.650;-16.902;2023-04-24T06:25:18;101552.06;;;14.94;66.90
61026;BME280;46911;32.650;-16.902;2023-04-24T06:27:24;101556.38;;;14.96;66.88
61026;BME280;46911;32.650;-16.902;2023-04-24T06:29:28;101576.22;;;15.06;66.46
61026;BME280;46911;32.650;-16.902;2023-04-24T06:31:29;101572.56;;;15.07;66.56
61026;BME280;46911;32.650;-16.902;2023-04-24T06:33:29;101577.31;;;15.04;66.66
61026;BME280;46911;32.650;-16.902;2023-04-24T06:35:30;101564.66;;;14.93;66.69
61026;BME280;46911;32.650;-16.902;2023-04-24T06:37:31;101557.69;;;14.90;66.84
61026;BME280;46911;32.650;-16.902;2023-04-24T06:39:35;101586.22;;;15.04;67.27
61026;BME280;46911;32.650;-16.902;2023-04-24T06:41:38;101579.75;;;15.07;67.58
61026;BME280;46911;32.650;-16.902;2023-04-24T06:43:49;101568.84;;;14.97;68.02
61026;BME280;46911;32.650;-16.902;2023-04-24T06:45:57;101588.69;;;15.07;68.28
61026;BME280;46911;32.650;-16.902;2023-04-24T06:47:58;101582.13;;;15.12;68.34
61026;BME280;46911;32.650;-16.902;2023-04-24T06:50:00;101589.50;;;15.21;67.93
61026;BME280;46911;32.650;-16.902;2023-04-24T06:52:08;101592.38;;;15.31;67.20
61026;BME280;46911;32.650;-16.902;2023-04-24T06:54:13;101568.00;;;15.21;67.14
61026;BME280;46911;32.650;-16.902;2023-04-24T06:56:23;101592.03;;;15.35;66.75
61026;BME280;46911;32.650;-16.902;2023-04-24T06:58:25;101581.72;;;15.29;66.84
61026;BME280;46911;32.650;-16.902;2023-04-24T07:00:26;101584.19;;;15.32;66.72
61026;BME280;46911;32.650;-16.902;2023-04-24T07:02:27;101582.25;;;15.34;66.39
61026;BME280;46911;32.650;-16.902;2023-04-24T07:04:30;101571.94;;;15.28;66.36
61026;BME280;46911;32.650;-16.902;2023-04-24T07:06:36;101591.69;;;15.40;66.09
61026;BME280;46911;32.650;-16.902;2023-04-24T07:08:39;101607.25;;;15.48;65.91
61026;BME280;46911;32.650;-16.902;2023-04-24T07:10:42;101605.06;;;15.53;65.81
61026;BME280;46911;32.650;-16.902;2023-04-24T07:12:43;101587.06;;;15.42;65.25
61026;BME280;46911;32.650;-16.902;2023-04-24T07:14:46;101598.50;;;15.57;65.04
61026;BME280;46911;32.650;-16.902;2023-04-24T07:16:47;101599.97;;;15.61;64.69
61026;BME280;46911;32.650;-16.902;2023-04-24T07:18:49;101591.63;;;15.53;64.61
61026;BME280;46911;32.650;-16.902;2023-04-24T07:20:49;101580.88;;;15.53;64.40
61026;BME280;46911;32.650;-16.902;2023-04-24T07:22:53;101582.13;;;15.60;64.19
61026;BME280;46911;32.650;-16.902;2023-04-24T07:25:00;101598.19;;;15.73;64.21
61026;BME280;46911;32.650;-16.902;2023-04-24T07:27:01;101583.88;;;15.72;63.67
61026;BME280;46911;32.650;-16.902;2023-04-24T07:29:02;101605.03;;;15.90;63.71
61026;BME280;46911;32.650;-16.902;2023-04-24T07:31:03;101582.75;;;15.88;63.44
61026;BME280;46911;32.650;-16.902;2023-04-24T07:33:04;101587.66;;;15.94;63.39
61026;BME280;46911;32.650;-16.902;2023-04-24T07:35:05;101583.88;;;15.97;63.22
61026;BME280;46911;32.650;-16.902;2023-04-24T07:37:06;101594.91;;;16.05;63.33
61026;BME280;46911;32.650;-16.902;2023-04-24T07:39:10;101598.38;;;16.18;63.08
61026;BME280;46911;32.650;-16.902;2023-04-24T07:41:11;101587.22;;;16.12;63.12
61026;BME280;46911;32.650;-16.902;2023-04-24T07:43:15;101608.28;;;16.29;62.84
61026;BME280;46911;32.650;-16.902;2023-04-24T07:45:20;101593.34;;;16.25;62.71
61026;BME280;46911;32.650;-16.902;2023-04-24T07:47:21;101610.63;;;16.45;62.67
61026;BME280;46911;32.650;-16.902;2023-04-24T07:49:22;101609.28;;;16.51;62.60
61026;BME280;46911;32.650;-16.902;2023-04-24T07:51:23;101597.88;;;16.47;62.49
61026;BME280;46911;32.650;-16.902;2023-04-24T07:53:27;101627.16;;;16.63;62.34
61026;BME280;46911;32.650;-16.902;2023-04-24T07:55:30;101602.91;;;16.63;62.34
61026;BME280;46911;32.650;-16.902;2023-04-24T07:57:34;101625.94;;;16.79;61.99
61026;BME280;46911;32.650;-16.902;2023-04-24T07:59:37;101605.00;;;16.71;62.03
61026;BME280;46911;32.650;-16.902;2023-04-24T08:01:38;101617.13;;;16.88;61.82
61026;BME280;46911;32.650;-16.902;2023-04-24T08:03:42;101600.97;;;16.88;61.52
61026;BME280;46911;32.650;-16.902;2023-04-24T08:05:45;101605.47;;;16.87;61.47
61026;BME280;46911;32.650;-16.902;2023-04-24T08:07:46;101617.75;;;17.03;61.37
61026;BME280;46911;32.650;-16.902;2023-04-24T08:09:49;101621.66;;;17.10;61.22
61026;BME280;46911;32.650;-16.902;2023-04-24T08:11:52;101609.41;;;17.06;61.11
61026;BME280;46911;32.650;-16.902;2023-04-24T08:13:56;101612.22;;;17.16;61.02
61026;BME280;46911;32.650;-16.902;2023-04-24T08:15:57;101611.72;;;17.22;60.89
61026;BME280;46911;32.650;-16.902;2023-04-24T08:17:58;101629.94;;;17.41;60.88
61026;BME280;46911;32.650;-16.902;2023-04-24T08:19:59;101616.47;;;17.41;60.69
61026;BME280;46911;32.650;-16.902;2023-04-24T08:22:04;101626.09;;;17.55;60.56
61026;BME280;46911;32.650;-16.902;2023-04-24T08:24:05;101609.31;;;17.51;60.41
61026;BME280;46911;32.650;-16.902;2023-04-24T08:26:16;101626.53;;;17.71;60.74
61026;BME280;46911;32.650;-16.902;2023-04-24T08:28:19;101623.19;;;17.79;60.56
61026;BME280;46911;32.650;-16.902;2023-04-24T08:30:23;101621.78;;;17.85;60.49
61026;BME280;46911;32.650;-16.902;2023-04-24T08:32:28;101628.03;;;17.97;60.33
61026;BME280;46911;32.650;-16.902;2023-04-24T08:34:30;101604.84;;;17.94;60.46
61026;BME280;46911;32.650;-16.902;2023-04-24T08:36:33;101617.34;;;18.06;60.53
61026;BME280;46911;32.650;-16.902;2023-04-24T08:38:34;101610.41;;;18.14;60.35
61026;BME280;46911;32.650;-16.902;2023-04-24T08:40:37;101624.16;;;18.32;60.34
61026;BME280;46911;32.650;-16.902;2023-04-24T08:42:44;101615.66;;;18.36;60.13
61026;BME280;46911;32.650;-16.902;2023-04-24T08:44:45;101615.56;;;18.48;59.93
61026;BME280;46911;32.650;-16.902;2023-04-24T08:46:49;101610.38;;;18.56;59.75
61026;BME280;46911;32.650;-16.902;2023-04-24T08:48:52;101611.53;;;18.63;59.66
61026;BME280;46911;32.650;-16.902;2023-04-24T08:50:57;101621.41;;;18.84;59.56
61026;BME280;46911;32.650;-16.902;2023-04-24T08:52:58;101621.53;;;19.13;59.11
61026;BME280;46911;32.650;-16.902;2023-04-24T08:55:05;101615.22;;;19.63;58.51
61026;BME280;46911;32.650;-16.902;2023-04-24T08:57:11;101605.81;;;20.16;55.78
61026;BME280;46911;32.650;-16.902;2023-04-24T08:59:17;101623.53;;;20.58;55.56
61026;BME280;46911;32.650;-16.902;2023-04-24T09:01:19;101630.16;;;20.83;54.71
61026;BME280;46911;32.650;-16.902;2023-04-24T09:03:21;101621.56;;;21.16;53.62
61026;BME280;46911;32.650;-16.902;2023-04-24T09:05:25;101620.25;;;21.20;53.89
61026;BME280;46911;32.650;-16.902;2023-04-24T09:07:30;101616.72;;;21.37;53.45
61026;BME280;46911;32.650;-16.902;2023-04-24T09:09:32;101605.94;;;21.28;53.01
61026;BME280;46911;32.650;-16.902;2023-04-24T09:11:34;101606.53;;;21.67;52.69
61026;BME280;46911;32.650;-16.902;2023-04-24T09:13:38;101602.63;;;21.52;52.25
61026;BME280;46911;32.650;-16.902;2023-04-24T09:15:40;101610.06;;;21.86;51.94
61026;BME280;46911;32.650;-16.902;2023-04-24T09:17:41;101606.28;;;22.23;50.44
61026;BME280;46911;32.650;-16.902;2023-04-24T09:19:42;101603.69;;;21.95;53.19
61026;BME280;46911;32.650;-16.902;2023-04-24T09:21:46;101603.19;;;21.55;55.88
61026;BME280;46911;32.650;-16.902;2023-04-24T09:23:57;101611.72;;;21.97;55.74
61026;BME280;46911;32.650;-16.902;2023-04-24T09:26:00;101603.06;;;21.29;56.97
61026;BME280;46911;32.650;-16.902;2023-04-24T09:28:05;101613.00;;;21.38;58.02
61026;BME280;46911;32.650;-16.902;2023-04-24T09:30:09;101612.94;;;21.02;58.27
61026;BME280;46911;32.650;-16.902;2023-04-24T09:32:21;101572.75;;;21.52;56.49
61026;BME280;46911;32.650;-16.902;2023-04-24T09:34:26;101604.78;;;21.48;57.49
61026;BME280;46911;32.650;-16.902;2023-04-24T09:36:47;101614.47;;;21.51;57.79
61026;BME280;46911;32.650;-16.902;2023-04-24T09:38:55;101618.09;;;22.14;55.49
61026;BME280;46911;32.650;-16.902;2023-04-24T09:41:02;101612.56;;;21.79;56.83
61026;BME280;46911;32.650;-16.902;2023-04-24T09:43:10;101605.66;;;21.67;58.36
61026;BME280;46911;32.650;-16.902;2023-04-24T09:45:14;101613.25;;;21.81;58.26
61026;BME280;46911;32.650;-16.902;2023-04-24T09:47:18;101606.16;;;22.06;57.56
61026;BME280;46911;32.650;-16.902;2023-04-24T09:49:30;101609.47;;;22.18;56.92
61026;BME280;46911;32.650;-16.902;2023-04-24T09:51:34;101626.63;;;22.19;57.40
61026;BME280;46911;32.650;-16.902;2023-04-24T09:53:38;101611.81;;;21.69;57.90
61026;BME280;46911;32.650;-16.902;2023-04-24T09:55:49;101609.59;;;21.72;58.60
61026;BME280;46911;32.650;-16.902;2023-04-24T09:58:01;101619.22;;;22.03;58.44
61026;BME280;46911;32.650;-16.902;2023-04-24T10:00:06;101639.56;;;22.69;56.61
61026;BME280;46911;32.650;-16.902;2023-04-24T10:02:19;101642.09;;;22.71;56.58
61026;BME280;46911;32.650;-16.902;2023-04-24T10:04:25;101643.88;;;22.10;57.81
61026;BME280;46911;32.650;-16.902;2023-04-24T10:06:35;101633.03;;;22.97;54.82
61026;BME280;46911;32.650;-16.902;2023-04-24T10:08:37;101628.31;;;23.07;54.60
61026;BME280;46911;32.650;-16.902;2023-04-24T10:10:46;101625.59;;;23.07;54.73
61026;BME280;46911;32.650;-16.902;2023-04-24T10:12:47;101618.25;;;22.99;54.82
61026;BME280;46911;32.650;-16.902;2023-04-24T10:14:55;101616.38;;;22.57;55.81
61026;BME280;46911;32.650;-16.902;2023-04-24T10:16:58;101629.16;;;22.65;55.51
61026;BME280;46911;32.650;-16.902;2023-04-24T10:18:59;101636.50;;;22.20;56.15
61026;BME280;46911;32.650;-16.902;2023-04-24T10:21:05;101631.50;;;22.94;55.16
61026;BME280;46911;32.650;-16.902;2023-04-24T10:23:06;101653.94;;;22.62;55.87
61026;BME280;46911;32.650;-16.902;2023-04-24T10:25:07;101640.56;;;22.68;56.07
61026;BME280;46911;32.650;-16.902;2023-04-24T10:27:12;101616.88;;;22.61;56.16
61026;BME280;46911;32.650;-16.902;2023-04-24T10:29:18;101649.13;;;22.82;55.90
61026;BME280;46911;32.650;-16.902;2023-04-24T10:31:20;101640.34;;;23.31;54.94
61026;BME280;46911;32.650;-16.902;2023-04-24T10:33:24;101648.69;;;22.60;56.46